sim
Sign-in with your pilot id or email,
or register
Callsign
Passwort

Schedule Details

Flight Number: EWG9553
Departure: Fuerteventura Airport (GCFV) at 12:25
Arrival: Dusseldorf International Airport (EDDL) at 17:00
Route: Eurowings Passenger Schedule. Enter filed route here before submitting Pirep.

Weather Information
Getting current METAR information for GCFV 211500Z 06004KT 010V110 CAVOK 20/14 Q1021
Getting current METAR information for EDDL 211450Z 22006KT 9999 FEW043 BKN048 12/06 Q1027 NOSIG

Schedule Frequency

Route Map